sensor_id;sensor_type;location;lat;lon;timestamp;temperature;humidity
79711;DHT22;69465;51.630;6.570;2023-05-09T00:02:22;17.10;59.90
79711;DHT22;69465;51.630;6.570;2023-05-09T00:04:49;17.10;60.00
79711;DHT22;69465;51.630;6.570;2023-05-09T00:07:16;17.10;60.10
79711;DHT22;69465;51.630;6.570;2023-05-09T00:09:43;17.10;60.50
79711;DHT22;69465;51.630;6.570;2023-05-09T00:12:09;17.10;60.70
79711;DHT22;69465;51.630;6.570;2023-05-09T00:14:36;17.10;60.40
79711;DHT22;69465;51.630;6.570;2023-05-09T00:17:03;17.10;60.70
79711;DHT22;69465;51.630;6.570;2023-05-09T00:19:30;17.20;60.80
79711;DHT22;69465;51.630;6.570;2023-05-09T00:21:57;17.20;60.80
79711;DHT22;69465;51.630;6.570;2023-05-09T00:24:23;17.20;60.80
79711;DHT22;69465;51.630;6.570;2023-05-09T00:26:50;17.20;60.80
79711;DHT22;69465;51.630;6.570;2023-05-09T00:29:17;17.20;60.80
79711;DHT22;69465;51.630;6.570;2023-05-09T00:31:43;17.20;60.80
79711;DHT22;69465;51.630;6.570;2023-05-09T00:34:10;17.30;60.90
79711;DHT22;69465;51.630;6.570;2023-05-09T00:36:37;17.30;60.80
79711;DHT22;69465;51.630;6.570;2023-05-09T00:39:03;17.30;60.60
79711;DHT22;69465;51.630;6.570;2023-05-09T00:41:30;17.30;60.70
79711;DHT22;69465;51.630;6.570;2023-05-09T00:43:57;17.40;61.00
79711;DHT22;69465;51.630;6.570;2023-05-09T00:46:23;17.40;61.00
79711;DHT22;69465;51.630;6.570;2023-05-09T00:48:50;17.30;60.80
79711;DHT22;69465;51.630;6.570;2023-05-09T00:51:17;17.40;60.70
79711;DHT22;69465;51.630;6.570;2023-05-09T00:53:44;17.40;60.10
79711;DHT22;69465;51.630;6.570;2023-05-09T00:56:11;17.40;60.10
79711;DHT22;69465;51.630;6.570;2023-05-09T00:58:37;17.40;60.20
79711;DHT22;69465;51.630;6.570;2023-05-09T01:01:04;17.40;60.10
79711;DHT22;69465;51.630;6.570;2023-05-09T01:03:31;17.40;60.10
79711;DHT22;69465;51.630;6.570;2023-05-09T01:06:06;17.40;60.40
79711;DHT22;69465;51.630;6.570;2023-05-09T01:11:40;17.40;60.80
79711;DHT22;69465;51.630;6.570;2023-05-09T01:14:36;17.30;60.90
79711;DHT22;69465;51.630;6.570;2023-05-09T01:17:27;17.30;60.90
79711;DHT22;69465;51.630;6.570;2023-05-09T01:20:50;17.30;61.20
79711;DHT22;69465;51.630;6.570;2023-05-09T01:25:48;17.20;61.40
79711;DHT22;69465;51.630;6.570;2023-05-09T01:31:07;17.20;61.80
79711;DHT22;69465;51.630;6.570;2023-05-09T01:33:37;17.20;62.20
79711;DHT22;69465;51.630;6.570;2023-05-09T01:36:10;17.30;61.90
79711;DHT22;69465;51.630;6.570;2023-05-09T01:38:39;17.30;62.10
79711;DHT22;69465;51.630;6.570;2023-05-09T01:41:08;17.30;61.90
79711;DHT22;69465;51.630;6.570;2023-05-09T01:43:37;17.30;61.90
79711;DHT22;69465;51.630;6.570;2023-05-09T01:46:05;17.30;62.00
79711;DHT22;69465;51.630;6.570;2023-05-09T01:48:35;17.30;61.80
79711;DHT22;69465;51.630;6.570;2023-05-09T01:51:02;17.40;61.90
79711;DHT22;69465;51.630;6.570;2023-05-09T01:53:29;17.40;62.00
79711;DHT22;69465;51.630;6.570;2023-05-09T01:55:57;17.40;62.30
79711;DHT22;69465;51.630;6.570;2023-05-09T01:58:25;17.40;62.50
79711;DHT22;69465;51.630;6.570;2023-05-09T02:00:52;17.40;62.50
79711;DHT22;69465;51.630;6.570;2023-05-09T02:03:20;17.30;62.50
79711;DHT22;69465;51.630;6.570;2023-05-09T02:05:49;17.40;62.70
79711;DHT22;69465;51.630;6.570;2023-05-09T02:08:17;17.40;62.70
79711;DHT22;69465;51.630;6.570;2023-05-09T02:10:46;17.40;62.80
79711;DHT22;69465;51.630;6.570;2023-05-09T02:13:13;17.40;62.90
79711;DHT22;69465;51.630;6.570;2023-05-09T02:15:41;17.40;63.10
79711;DHT22;69465;51.630;6.570;2023-05-09T02:18:08;17.40;63.20
79711;DHT22;69465;51.630;6.570;2023-05-09T02:20:35;17.30;63.30
79711;DHT22;69465;51.630;6.570;2023-05-09T02:23:02;17.40;63.40
79711;DHT22;69465;51.630;6.570;2023-05-09T02:25:29;17.30;63.10
79711;DHT22;69465;51.630;6.570;2023-05-09T02:27:57;17.40;63.10
79711;DHT22;69465;51.630;6.570;2023-05-09T02:30:25;17.40;63.30
79711;DHT22;69465;51.630;6.570;2023-05-09T02:33:00;17.40;63.30
79711;DHT22;69465;51.630;6.570;2023-05-09T02:35:27;17.40;63.30
79711;DHT22;69465;51.630;6.570;2023-05-09T02:37:56;17.40;63.40
79711;DHT22;69465;51.630;6.570;2023-05-09T02:40:26;17.40;63.50
79711;DHT22;69465;51.630;6.570;2023-05-09T02:42:54;17.40;63.20
79711;DHT22;69465;51.630;6.570;2023-05-09T02:45:20;17.40;63.10
79711;DHT22;69465;51.630;6.570;2023-05-09T02:47:47;17.40;63.10
79711;DHT22;69465;51.630;6.570;2023-05-09T02:50:14;17.30;63.00
79711;DHT22;69465;51.630;6.570;2023-05-09T02:52:41;17.30;63.10
79711;DHT22;69465;51.630;6.570;2023-05-09T02:55:07;17.30;63.20
79711;DHT22;69465;51.630;6.570;2023-05-09T02:57:34;17.30;63.00
79711;DHT22;69465;51.630;6.570;2023-05-09T03:00:02;17.30;63.40
79711;DHT22;69465;51.630;6.570;2023-05-09T03:02:28;17.20;63.20
79711;DHT22;69465;51.630;6.570;2023-05-09T03:04:55;17.20;63.10
79711;DHT22;69465;51.630;6.570;2023-05-09T03:07:22;17.20;63.30
79711;DHT22;69465;51.630;6.570;2023-05-09T03:09:48;17.20;63.30
79711;DHT22;69465;51.630;6.570;2023-05-09T03:12:15;17.20;63.40
79711;DHT22;69465;51.630;6.570;2023-05-09T03:14:41;17.20;63.20
79711;DHT22;69465;51.630;6.570;2023-05-09T03:17:08;17.20;63.40
79711;DHT22;69465;51.630;6.570;2023-05-09T03:19:35;17.10;63.20
79711;DHT22;69465;51.630;6.570;2023-05-09T03:22:01;17.10;64.00
79711;DHT22;69465;51.630;6.570;2023-05-09T03:24:28;17.10;63.30
79711;DHT22;69465;51.630;6.570;2023-05-09T03:26:55;17.10;63.30
79711;DHT22;69465;51.630;6.570;2023-05-09T03:29:22;17.10;63.30
79711;DHT22;69465;51.630;6.570;2023-05-09T03:31:48;17.10;63.30
79711;DHT22;69465;51.630;6.570;2023-05-09T03:34:15;17.10;63.20
79711;DHT22;69465;51.630;6.570;2023-05-09T03:36:42;17.10;63.40
79711;DHT22;69465;51.630;6.570;2023-05-09T03:39:09;17.10;63.50
79711;DHT22;69465;51.630;6.570;2023-05-09T03:41:36;17.10;63.50
79711;DHT22;69465;51.630;6.570;2023-05-09T03:44:03;17.10;63.50
79711;DHT22;69465;51.630;6.570;2023-05-09T03:46:30;17.10;63.40
79711;DHT22;69465;51.630;6.570;2023-05-09T03:48:57;17.00;63.20
79711;DHT22;69465;51.630;6.570;2023-05-09T03:51:24;17.10;63.30
79711;DHT22;69465;51.630;6.570;2023-05-09T03:53:50;17.10;63.20
79711;DHT22;69465;51.630;6.570;2023-05-09T03:56:17;17.10;63.00
79711;DHT22;69465;51.630;6.570;2023-05-09T03:58:44;17.10;63.00
79711;DHT22;69465;51.630;6.570;2023-05-09T04:01:11;17.10;62.90
79711;DHT22;69465;51.630;6.570;2023-05-09T04:03:37;17.10;62.80
79711;DHT22;69465;51.630;6.570;2023-05-09T04:06:04;17.10;63.20
79711;DHT22;69465;51.630;6.570;2023-05-09T04:08:32;17.10;62.60
79711;DHT22;69465;51.630;6.570;2023-05-09T04:10:58;17.10;62.60
79711;DHT22;69465;51.630;6.570;2023-05-09T04:13:25;17.20;62.60
79711;DHT22;69465;51.630;6.570;2023-05-09T04:15:52;17.10;62.60
79711;DHT22;69465;51.630;6.570;2023-05-09T04:18:19;17.20;62.70
79711;DHT22;69465;51.630;6.570;2023-05-09T04:20:45;17.10;62.70
79711;DHT22;69465;51.630;6.570;2023-05-09T04:23:12;17.20;62.50
79711;DHT22;69465;51.630;6.570;2023-05-09T04:25:38;17.10;62.30
79711;DHT22;69465;51.630;6.570;2023-05-09T04:28:05;17.20;62.40
79711;DHT22;69465;51.630;6.570;2023-05-09T04:30:32;17.10;63.30
79711;DHT22;69465;51.630;6.570;2023-05-09T04:32:59;17.10;61.90
79711;DHT22;69465;51.630;6.570;2023-05-09T04:35:25;17.20;62.20
79711;DHT22;69465;51.630;6.570;2023-05-09T04:37:52;17.20;61.90
79711;DHT22;69465;51.630;6.570;2023-05-09T04:40:19;17.20;62.40
79711;DHT22;69465;51.630;6.570;2023-05-09T04:42:45;17.20;62.20
79711;DHT22;69465;51.630;6.570;2023-05-09T04:45:12;17.20;61.60
79711;DHT22;69465;51.630;6.570;2023-05-09T04:47:39;17.30;61.70
79711;DHT22;69465;51.630;6.570;2023-05-09T04:50:06;17.30;61.40
79711;DHT22;69465;51.630;6.570;2023-05-09T04:52:33;17.30;62.00
79711;DHT22;69465;51.630;6.570;2023-05-09T04:54:59;17.40;61.40
79711;DHT22;69465;51.630;6.570;2023-05-09T04:57:26;17.40;61.40
79711;DHT22;69465;51.630;6.570;2023-05-09T04:59:53;17.40;61.20
79711;DHT22;69465;51.630;6.570;2023-05-09T05:02:19;17.40;61.00
79711;DHT22;69465;51.630;6.570;2023-05-09T05:04:46;17.40;61.00
79711;DHT22;69465;51.630;6.570;2023-05-09T05:07:13;17.50;61.10
79711;DHT22;69465;51.630;6.570;2023-05-09T05:09:39;17.50;61.10
79711;DHT22;69465;51.630;6.570;2023-05-09T05:12:06;17.50;61.10
79711;DHT22;69465;51.630;6.570;2023-05-09T05:14:35;17.50;60.70
79711;DHT22;69465;51.630;6.570;2023-05-09T05:17:02;17.60;61.00
79711;DHT22;69465;51.630;6.570;2023-05-09T05:19:28;17.60;61.00
79711;DHT22;69465;51.630;6.570;2023-05-09T05:21:55;17.70;60.20
79711;DHT22;69465;51.630;6.570;2023-05-09T05:24:22;17.80;60.10
79711;DHT22;69465;51.630;6.570;2023-05-09T05:26:48;17.80;59.90
79711;DHT22;69465;51.630;6.570;2023-05-09T05:29:15;17.80;59.20
79711;DHT22;69465;51.630;6.570;2023-05-09T05:31:41;17.90;59.10
79711;DHT22;69465;51.630;6.570;2023-05-09T05:34:08;17.90;59.10
79711;DHT22;69465;51.630;6.570;2023-05-09T05:36:35;17.90;59.00
79711;DHT22;69465;51.630;6.570;2023-05-09T05:39:02;17.90;59.10
79711;DHT22;69465;51.630;6.570;2023-05-09T05:41:29;18.00;58.80
79711;DHT22;69465;51.630;6.570;2023-05-09T05:43:55;18.00;59.10
79711;DHT22;69465;51.630;6.570;2023-05-09T05:46:22;18.00;59.30
79711;DHT22;69465;51.630;6.570;2023-05-09T05:48:48;18.00;59.20
79711;DHT22;69465;51.630;6.570;2023-05-09T05:51:15;18.00;59.50
79711;DHT22;69465;51.630;6.570;2023-05-09T05:53:42;18.00;59.30
79711;DHT22;69465;51.630;6.570;2023-05-09T05:56:08;18.00;59.20
79711;DHT22;69465;51.630;6.570;2023-05-09T05:58:35;18.00;59.20
79711;DHT22;69465;51.630;6.570;2023-05-09T06:01:01;18.00;59.40
79711;DHT22;69465;51.630;6.570;2023-05-09T06:03:28;18.10;59.30
79711;DHT22;69465;51.630;6.570;2023-05-09T06:05:55;18.10;58.90
79711;DHT22;69465;51.630;6.570;2023-05-09T06:08:22;18.10;59.10
79711;DHT22;69465;51.630;6.570;2023-05-09T06:10:49;18.10;58.80
79711;DHT22;69465;51.630;6.570;2023-05-09T06:13:15;18.20;58.50
79711;DHT22;69465;51.630;6.570;2023-05-09T06:15:42;18.20;58.70
79711;DHT22;69465;51.630;6.570;2023-05-09T06:18:09;18.20;57.50
79711;DHT22;69465;51.630;6.570;2023-05-09T06:20:35;18.30;58.00
79711;DHT22;69465;51.630;6.570;2023-05-09T06:23:02;18.30;57.70
79711;DHT22;69465;51.630;6.570;2023-05-09T06:25:29;18.40;57.20
79711;DHT22;69465;51.630;6.570;2023-05-09T06:27:55;18.40;57.60
79711;DHT22;69465;51.630;6.570;2023-05-09T06:30:22;18.50;57.30
79711;DHT22;69465;51.630;6.570;2023-05-09T06:32:53;18.70;57.50
79711;DHT22;69465;51.630;6.570;2023-05-09T06:35:20;18.80;57.30
79711;DHT22;69465;51.630;6.570;2023-05-09T06:37:47;19.00;57.30
79711;DHT22;69465;51.630;6.570;2023-05-09T06:40:15;19.30;56.30
79711;DHT22;69465;51.630;6.570;2023-05-09T06:42:41;19.50;56.00
79711;DHT22;69465;51.630;6.570;2023-05-09T06:45:08;19.60;53.90
79711;DHT22;69465;51.630;6.570;2023-05-09T06:47:35;19.80;53.70
79711;DHT22;69465;51.630;6.570;2023-05-09T06:50:02;19.80;53.70
79711;DHT22;69465;51.630;6.570;2023-05-09T06:52:29;19.80;53.50
79711;DHT22;69465;51.630;6.570;2023-05-09T06:54:55;19.80;53.70
79711;DHT22;69465;51.630;6.570;2023-05-09T06:57:22;19.90;53.60
79711;DHT22;69465;51.630;6.570;2023-05-09T06:59:49;20.00;52.90
79711;DHT22;69465;51.630;6.570;2023-05-09T07:02:15;20.10;52.90
79711;DHT22;69465;51.630;6.570;2023-05-09T07:04:42;20.10;53.00
79711;DHT22;69465;51.630;6.570;2023-05-09T07:07:09;20.10;52.70
79711;DHT22;69465;51.630;6.570;2023-05-09T07:09:36;20.10;52.30
79711;DHT22;69465;51.630;6.570;2023-05-09T07:12:03;20.10;52.40
79711;DHT22;69465;51.630;6.570;2023-05-09T07:14:30;20.10;51.90
79711;DHT22;69465;51.630;6.570;2023-05-09T07:16:56;20.10;52.40
79711;DHT22;69465;51.630;6.570;2023-05-09T07:19:43;20.10;52.40
79711;DHT22;69465;51.630;6.570;2023-05-09T07:22:10;20.10;52.30
79711;DHT22;69465;51.630;6.570;2023-05-09T07:24:36;19.90;51.80
79711;DHT22;69465;51.630;6.570;2023-05-09T07:27:03;19.80;52.20
79711;DHT22;69465;51.630;6.570;2023-05-09T07:29:29;19.70;52.40
79711;DHT22;69465;51.630;6.570;2023-05-09T07:31:56;19.60;53.00
79711;DHT22;69465;51.630;6.570;2023-05-09T07:34:23;19.60;52.70
79711;DHT22;69465;51.630;6.570;2023-05-09T07:36:50;19.50;53.10
79711;DHT22;69465;51.630;6.570;2023-05-09T07:39:16;19.50;53.10
79711;DHT22;69465;51.630;6.570;2023-05-09T07:41:43;19.50;53.50
79711;DHT22;69465;51.630;6.570;2023-05-09T07:44:09;19.50;53.50
79711;DHT22;69465;51.630;6.570;2023-05-09T07:46:36;19.50;53.30
79711;DHT22;69465;51.630;6.570;2023-05-09T07:49:03;19.60;53.40
79711;DHT22;69465;51.630;6.570;2023-05-09T07:51:30;19.70;53.60
79711;DHT22;69465;51.630;6.570;2023-05-09T07:53:56;19.90;53.00
79711;DHT22;69465;51.630;6.570;2023-05-09T07:56:23;20.10;53.00
79711;DHT22;69465;51.630;6.570;2023-05-09T07:58:50;20.30;52.20
79711;DHT22;69465;51.630;6.570;2023-05-09T08:01:19;20.60;52.20
79711;DHT22;69465;51.630;6.570;2023-05-09T08:03:45;21.20;50.90
79711;DHT22;69465;51.630;6.570;2023-05-09T08:06:12;22.00;49.60
79711;DHT22;69465;51.630;6.570;2023-05-09T08:08:39;23.00;47.50
79711;DHT22;69465;51.630;6.570;2023-05-09T08:11:06;24.20;44.60
79711;DHT22;69465;51.630;6.570;2023-05-09T08:13:32;25.20;42.60
79711;DHT22;69465;51.630;6.570;2023-05-09T08:16:00;26.10;40.30
79711;DHT22;69465;51.630;6.570;2023-05-09T08:18:26;26.50;38.80
79711;DHT22;69465;51.630;6.570;2023-05-09T08:20:53;26.70;38.20
79711;DHT22;69465;51.630;6.570;2023-05-09T08:23:19;27.10;37.80
79711;DHT22;69465;51.630;6.570;2023-05-09T08:25:46;27.40;36.20
79711;DHT22;69465;51.630;6.570;2023-05-09T08:28:13;27.40;36.30
79711;DHT22;69465;51.630;6.570;2023-05-09T08:30:39;27.10;35.70
79711;DHT22;69465;51.630;6.570;2023-05-09T08:33:06;26.70;35.70
79711;DHT22;69465;51.630;6.570;2023-05-09T08:35:33;26.50;35.40
79711;DHT22;69465;51.630;6.570;2023-05-09T08:38:00;26.20;35.50
79711;DHT22;69465;51.630;6.570;2023-05-09T08:40:26;26.00;36.30
79711;DHT22;69465;51.630;6.570;2023-05-09T08:42:53;25.90;36.20
79711;DHT22;69465;51.630;6.570;2023-05-09T08:45:25;26.00;36.20
79711;DHT22;69465;51.630;6.570;2023-05-09T08:47:54;26.20;35.90
79711;DHT22;69465;51.630;6.570;2023-05-09T08:50:22;26.60;36.50
79711;DHT22;69465;51.630;6.570;2023-05-09T08:52:48;27.10;34.90
79711;DHT22;69465;51.630;6.570;2023-05-09T08:55:17;27.60;33.10
79711;DHT22;69465;51.630;6.570;2023-05-09T08:57:44;28.10;31.50
79711;DHT22;69465;51.630;6.570;2023-05-09T09:00:12;28.40;30.50
79711;DHT22;69465;51.630;6.570;2023-05-09T09:02:40;28.50;31.10
79711;DHT22;69465;51.630;6.570;2023-05-09T09:05:07;28.40;31.40
79711;DHT22;69465;51.630;6.570;2023-05-09T09:07:54;28.60;30.30
79711;DHT22;69465;51.630;6.570;2023-05-09T09:10:23;28.90;30.20
79711;DHT22;69465;51.630;6.570;2023-05-09T09:12:52;29.00;30.00
79711;DHT22;69465;51.630;6.570;2023-05-09T09:15:19;29.00;28.30
79711;DHT22;69465;51.630;6.570;2023-05-09T09:17:49;29.20;28.90
79711;DHT22;69465;51.630;6.570;2023-05-09T09:20:17;29.60;28.90
79711;DHT22;69465;51.630;6.570;2023-05-09T09:22:47;29.50;27.90
79711;DHT22;69465;51.630;6.570;2023-05-09T09:25:14;29.50;28.20
79711;DHT22;69465;51.630;6.570;2023-05-09T09:27:41;29.50;28.30
79711;DHT22;69465;51.630;6.570;2023-05-09T09:30:09;29.50;28.10
79711;DHT22;69465;51.630;6.570;2023-05-09T09:32:37;29.60;27.50
79711;DHT22;69465;51.630;6.570;2023-05-09T09:35:08;29.90;27.60
79711;DHT22;69465;51.630;6.570;2023-05-09T09:37:37;29.50;28.00
79711;DHT22;69465;51.630;6.570;2023-05-09T09:40:07;29.30;28.00
79711;DHT22;69465;51.630;6.570;2023-05-09T09:42:40;29.00;27.50
79711;DHT22;69465;51.630;6.570;2023-05-09T09:45:15;28.60;28.80
79711;DHT22;69465;51.630;6.570;2023-05-09T09:47:43;28.30;29.40
79711;DHT22;69465;51.630;6.570;2023-05-09T09:55:16;27.10;30.90
79711;DHT22;69465;51.630;6.570;2023-05-09T09:57:43;26.70;32.30
79711;DHT22;69465;51.630;6.570;2023-05-09T10:00:15;26.50;33.10
79711;DHT22;69465;51.630;6.570;2023-05-09T10:02:50;26.30;33.00
79711;DHT22;69465;51.630;6.570;2023-05-09T10:05:27;26.00;33.20
79711;DHT22;69465;51.630;6.570;2023-05-09T10:07:57;25.80;33.80
79711;DHT22;69465;51.630;6.570;2023-05-09T10:10:31;25.70;34.30
79711;DHT22;69465;51.630;6.570;2023-05-09T10:13:09;25.60;34.90
79711;DHT22;69465;51.630;6.570;2023-05-09T10:15:36;25.40;34.20
79711;DHT22;69465;51.630;6.570;2023-05-09T10:18:20;25.30;35.30
79711;DHT22;69465;51.630;6.570;2023-05-09T10:20:49;25.30;35.40
79711;DHT22;69465;51.630;6.570;2023-05-09T10:23:17;25.50;34.80
79711;DHT22;69465;51.630;6.570;2023-05-09T10:26:15;25.50;34.20
79711;DHT22;69465;51.630;6.570;2023-05-09T10:28:44;25.80;33.40
79711;DHT22;69465;51.630;6.570;2023-05-09T10:31:15;25.90;33.90
79711;DHT22;69465;51.630;6.570;2023-05-09T10:33:48;26.00;33.40
79711;DHT22;69465;51.630;6.570;2023-05-09T10:36:18;26.00;33.20
79711;DHT22;69465;51.630;6.570;2023-05-09T10:38:49;26.00;33.90
79711;DHT22;69465;51.630;6.570;2023-05-09T10:41:16;25.80;33.80
79711;DHT22;69465;51.630;6.570;2023-05-09T10:43:44;25.80;34.40
79711;DHT22;69465;51.630;6.570;2023-05-09T10:46:11;25.80;35.20
79711;DHT22;69465;51.630;6.570;2023-05-09T10:48:39;25.80;34.60
79711;DHT22;69465;51.630;6.570;2023-05-09T10:51:06;25.90;35.40
79711;DHT22;69465;51.630;6.570;2023-05-09T10:53:40;26.00;35.30
79711;DHT22;69465;51.630;6.570;2023-05-09T10:56:07;25.90;33.40
79711;DHT22;69465;51.630;6.570;2023-05-09T10:58:34;25.80;34.60
79711;DHT22;69465;51.630;6.570;2023-05-09T11:01:02;25.70;34.30
79711;DHT22;69465;51.630;6.570;2023-05-09T11:03:52;25.20;34.00
79711;DHT22;69465;51.630;6.570;2023-05-09T11:06:50;24.70;37.80
79711;DHT22;69465;51.630;6.570;2023-05-09T11:11:56;23.80;40.80
79711;DHT22;69465;51.630;6.570;2023-05-09T11:14:43;23.30;40.90
79711;DHT22;69465;51.630;6.570;2023-05-09T11:17:26;23.00;42.60
79711;DHT22;69465;51.630;6.570;2023-05-09T11:19:58;22.60;43.20
79711;DHT22;69465;51.630;6.570;2023-05-09T11:22:29;22.40;44.20
79711;DHT22;69465;51.630;6.570;2023-05-09T11:25:03;22.20;44.90
79711;DHT22;69465;51.630;6.570;2023-05-09T11:30:14;21.90;46.60
79711;DHT22;69465;51.630;6.570;2023-05-09T11:35:16;21.60;47.10
79711;DHT22;69465;51.630;6.570;2023-05-09T11:40:23;21.60;48.50
79711;DHT22;69465;51.630;6.570;2023-05-09T11:42:51;21.80;47.00
79711;DHT22;69465;51.630;6.570;2023-05-09T11:45:20;22.00;46.30
79711;DHT22;69465;51.630;6.570;2023-05-09T11:47:47;22.40;45.00
79711;DHT22;69465;51.630;6.570;2023-05-09T11:50:16;22.80;44.50
79711;DHT22;69465;51.630;6.570;2023-05-09T11:52:43;23.20;44.50
79711;DHT22;69465;51.630;6.570;2023-05-09T11:55:14;23.60;43.00
79711;DHT22;69465;51.630;6.570;2023-05-09T11:57:46;24.00;41.90
79711;DHT22;69465;51.630;6.570;2023-05-09T12:00:18;24.40;39.70
79711;DHT22;69465;51.630;6.570;2023-05-09T12:02:46;24.50;39.70
79711;DHT22;69465;51.630;6.570;2023-05-09T12:05:14;24.40;39.10
79711;DHT22;69465;51.630;6.570;2023-05-09T12:07:42;24.20;39.30
79711;DHT22;69465;51.630;6.570;2023-05-09T12:10:11;24.10;39.80
79711;DHT22;69465;51.630;6.570;2023-05-09T12:12:42;24.00;39.60
79711;DHT22;69465;51.630;6.570;2023-05-09T12:15:10;23.80;39.50
79711;DHT22;69465;51.630;6.570;2023-05-09T12:17:36;23.70;40.80
79711;DHT22;69465;51.630;6.570;2023-05-09T12:20:04;23.70;41.70
79711;DHT22;69465;51.630;6.570;2023-05-09T12:22:31;23.70;41.40
79711;DHT22;69465;51.630;6.570;2023-05-09T12:25:07;23.80;40.30
79711;DHT22;69465;51.630;6.570;2023-05-09T12:27:35;23.70;41.50
79711;DHT22;69465;51.630;6.570;2023-05-09T12:30:04;23.80;42.80
79711;DHT22;69465;51.630;6.570;2023-05-09T12:32:31;23.70;44.00
79711;DHT22;69465;51.630;6.570;2023-05-09T12:34:59;23.70;42.80
79711;DHT22;69465;51.630;6.570;2023-05-09T12:37:25;23.70;44.60
79711;DHT22;69465;51.630;6.570;2023-05-09T12:40:11;23.60;43.50
79711;DHT22;69465;51.630;6.570;2023-05-09T12:42:38;23.50;43.40
79711;DHT22;69465;51.630;6.570;2023-05-09T12:45:07;23.40;44.30
79711;DHT22;69465;51.630;6.570;2023-05-09T12:47:34;23.20;45.40
79711;DHT22;69465;51.630;6.570;2023-05-09T12:50:03;23.00;46.10
79711;DHT22;69465;51.630;6.570;2023-05-09T12:52:35;22.80;47.80
79711;DHT22;69465;51.630;6.570;2023-05-09T12:55:13;22.60;47.40
79711;DHT22;69465;51.630;6.570;2023-05-09T12:57:40;22.30;47.90
79711;DHT22;69465;51.630;6.570;2023-05-09T13:00:08;22.20;49.60
79711;DHT22;69465;51.630;6.570;2023-05-09T13:02:35;21.90;50.40
79711;DHT22;69465;51.630;6.570;2023-05-09T13:05:06;21.60;51.60
79711;DHT22;69465;51.630;6.570;2023-05-09T13:07:44;21.50;52.20
79711;DHT22;69465;51.630;6.570;2023-05-09T13:10:24;21.20;53.10
79711;DHT22;69465;51.630;6.570;2023-05-09T13:12:51;20.80;53.30
79711;DHT22;69465;51.630;6.570;2023-05-09T13:15:19;20.30;53.80
79711;DHT22;69465;51.630;6.570;2023-05-09T13:17:50;19.90;55.20
79711;DHT22;69465;51.630;6.570;2023-05-09T13:20:17;19.50;58.10
79711;DHT22;69465;51.630;6.570;2023-05-09T13:22:45;19.20;57.90
79711;DHT22;69465;51.630;6.570;2023-05-09T13:25:12;18.80;59.30
79711;DHT22;69465;51.630;6.570;2023-05-09T13:27:39;18.60;59.60
79711;DHT22;69465;51.630;6.570;2023-05-09T13:30:06;18.50;61.30
79711;DHT22;69465;51.630;6.570;2023-05-09T13:32:33;18.40;62.40
79711;DHT22;69465;51.630;6.570;2023-05-09T13:35:00;18.30;61.90
79711;DHT22;69465;51.630;6.570;2023-05-09T13:37:27;18.30;63.20
79711;DHT22;69465;51.630;6.570;2023-05-09T13:39:54;18.30;63.20
79711;DHT22;69465;51.630;6.570;2023-05-09T13:42:21;18.40;63.00
79711;DHT22;69465;51.630;6.570;2023-05-09T13:44:47;18.40;64.50
79711;DHT22;69465;51.630;6.570;2023-05-09T13:47:14;18.40;63.50
79711;DHT22;69465;51.630;6.570;2023-05-09T13:49:40;18.50;63.60
79711;DHT22;69465;51.630;6.570;2023-05-09T13:52:07;18.50;63.90
79711;DHT22;69465;51.630;6.570;2023-05-09T13:54:33;18.50;63.20
79711;DHT22;69465;51.630;6.570;2023-05-09T13:57:04;18.60;63.60
79711;DHT22;69465;51.630;6.570;2023-05-09T13:59:30;18.60;62.70
79711;DHT22;69465;51.630;6.570;2023-05-09T14:01:58;18.60;61.80
79711;DHT22;69465;51.630;6.570;2023-05-09T14:04:25;18.60;61.60
79711;DHT22;69465;51.630;6.570;2023-05-09T14:06:53;18.60;62.40
79711;DHT22;69465;51.630;6.570;2023-05-09T14:09:21;18.60;61.70
79711;DHT22;69465;51.630;6.570;2023-05-09T14:11:48;18.70;62.30
79711;DHT22;69465;51.630;6.570;2023-05-09T14:14:15;18.80;61.80
79711;DHT22;69465;51.630;6.570;2023-05-09T14:16:41;18.90;61.90
79711;DHT22;69465;51.630;6.570;2023-05-09T14:19:08;18.90;61.40
79711;DHT22;69465;51.630;6.570;2023-05-09T14:21:35;18.90;61.40
79711;DHT22;69465;51.630;6.570;2023-05-09T14:24:02;18.60;58.00
79711;DHT22;69465;51.630;6.570;2023-05-09T14:26:29;18.40;58.10
79711;DHT22;69465;51.630;6.570;2023-05-09T14:28:55;18.10;58.50
79711;DHT22;69465;51.630;6.570;2023-05-09T14:31:22;17.90;59.40
79711;DHT22;69465;51.630;6.570;2023-05-09T14:33:49;17.80;59.60
79711;DHT22;69465;51.630;6.570;2023-05-09T14:36:15;17.70;59.90
79711;DHT22;69465;51.630;6.570;2023-05-09T14:38:42;17.70;61.30
79711;DHT22;69465;51.630;6.570;2023-05-09T14:41:09;17.70;60.90
79711;DHT22;69465;51.630;6.570;2023-05-09T14:43:35;17.70;61.20
79711;DHT22;69465;51.630;6.570;2023-05-09T14:46:02;17.70;61.10
79711;DHT22;69465;51.630;6.570;2023-05-09T14:48:28;17.80;60.70
79711;DHT22;69465;51.630;6.570;2023-05-09T14:50:54;17.80;60.50
79711;DHT22;69465;51.630;6.570;2023-05-09T14:53:22;17.80;60.20
79711;DHT22;69465;51.630;6.570;2023-05-09T14:55:49;17.90;60.40
79711;DHT22;69465;51.630;6.570;2023-05-09T14:58:16;17.90;60.00
79711;DHT22;69465;51.630;6.570;2023-05-09T15:00:44;17.90;61.00
79711;DHT22;69465;51.630;6.570;2023-05-09T15:03:12;17.90;61.10
79711;DHT22;69465;51.630;6.570;2023-05-09T15:05:39;18.00;60.70
79711;DHT22;69465;51.630;6.570;2023-05-09T15:08:07;17.90;60.50
79711;DHT22;69465;51.630;6.570;2023-05-09T15:10:33;17.90;60.50
79711;DHT22;69465;51.630;6.570;2023-05-09T15:13:00;18.00;61.50
79711;DHT22;69465;51.630;6.570;2023-05-09T15:15:28;18.00;61.10
79711;DHT22;69465;51.630;6.570;2023-05-09T15:17:56;18.10;60.40
79711;DHT22;69465;51.630;6.570;2023-05-09T15:20:23;18.00;59.00
79711;DHT22;69465;51.630;6.570;2023-05-09T15:22:49;18.10;60.10
79711;DHT22;69465;51.630;6.570;2023-05-09T15:25:16;18.00;59.70
79711;DHT22;69465;51.630;6.570;2023-05-09T15:27:43;18.00;58.70
79711;DHT22;69465;51.630;6.570;2023-05-09T15:30:10;18.00;59.90
79711;DHT22;69465;51.630;6.570;2023-05-09T15:32:37;18.00;60.40
79711;DHT22;69465;51.630;6.570;2023-05-09T15:35:07;17.90;59.90
79711;DHT22;69465;51.630;6.570;2023-05-09T15:37:33;17.90;59.90
79711;DHT22;69465;51.630;6.570;2023-05-09T15:40:01;17.80;60.00
79711;DHT22;69465;51.630;6.570;2023-05-09T15:42:27;17.70;60.50
79711;DHT22;69465;51.630;6.570;2023-05-09T15:44:54;17.80;61.40
79711;DHT22;69465;51.630;6.570;2023-05-09T15:47:20;17.80;61.40
79711;DHT22;69465;51.630;6.570;2023-05-09T15:49:47;17.80;60.80
79711;DHT22;69465;51.630;6.570;2023-05-09T15:52:14;17.80;60.90
79711;DHT22;69465;51.630;6.570;2023-05-09T15:54:40;17.80;61.40
79711;DHT22;69465;51.630;6.570;2023-05-09T15:57:07;17.90;60.60
79711;DHT22;69465;51.630;6.570;2023-05-09T15:59:33;17.90;60.40
79711;DHT22;69465;51.630;6.570;2023-05-09T16:02:00;17.90;60.20